Архив погоды в Новом Торьяле

Метеограмма Новый Торьял
Вторник, 14 Августа
Время местн. Темп Ветер Видим Явления Облачность нижн/средн/верх Атм. давл. Влжн Точка росы ВНГО R Сост. почвы Tg s
Напр Скр Прв ур.ст ур.м изм
12:00 +19.5° З,С-З 4 6 20 км - преимущественно облачно 745 758 +0.3 54% +10° 1 км - - - -
09:00 +18.1° З,С-З 3 6 20 км - переменная облачность 745 758 +0.4 61% +10.4° - - - - -
06:00 +13.1° З 1 3 20 км - облачно с прояснениями 745 757 +0.8 81% +10° 1 км - Влажная (без луж) - -
03:00 +13.8° З 1 1 20 км - облачно с прояснениями 744 757 +0.4 76% +9.7° 1 км - - - -
00:00 +14.5° З,Ю-З 1 2 20 км - переменная облачность 744 756 +0.2 81% +11.3° 1 км - - - -
Понедельник, 13 Августа
Время местн. Темп Ветер Видим Явления Облачность нижн/средн/верх Атм. давл. Влжн Точка росы ВНГО R Сост. почвы Tg s
Напр Скр Прв ур.ст ур.м изм
21:00 +16.7° З,Ю-З 1 3 20 км - облачно с прояснениями 743 756 +0.6 75% +12.2° 1 км - - - -
18:00 +23.7° З 3 5 20 км - переменная облачность 743 755 -0.3 37% +8.1° 600 м - - - -
15:00 +25.4° З 4 7 20 км - облачно 743 755 -0.2 43% +11.8° 600 м - - - -
12:00 +25.3° З 4 8 20 км - облачно с прояснениями 743 755 -0.6 48% +13.6° 600 м - - - -
09:00 +19.8° З,Ю-З 2 5 20 км - облачно с прояснениями 744 756 -0.5 65% +13.1° - - - - -
06:00 +16.1° З,Ю-З 1 2 20 км - облачно 744 757 -0.4 78% +12.3° - - Влажная (без луж) - -
03:00 +15.7° З,Ю-З 1 3 20 км - переменная облачность 745 757 -0.7 80% +12.2° - - - - -
00:00 +15.6° штиль 0 0 20 км - ясно 745 758 -0.6 86% +13.2° более 2.5 км - - - -
Воскресенье, 12 Августа
Время местн. Темп Ветер Видим Явления Облачность нижн/средн/верх Атм. давл. Влжн Точка росы ВНГО R Сост. почвы Tg s
Напр Скр Прв ур.ст ур.м изм
21:00 +18.3° штиль 0 0 20 км - переменная облачность 746 758 -0.7 77% +14.1° более 2.5 км - - - -
18:00 +25.3° З 2 3 20 км - ясно 747 759 -1 44% +12.3° более 2.5 км - - - -
15:00 +26.3° З,С-З 2 4 20 км - облачно с прояснениями 748 760 -0.8 41% +11.9° 1 км - - - -
12:00 +24.8° З,С-З 3 7 20 км - облачно с прояснениями 748 761 -0.3 47% +12.7° 1 км - - - -
09:00 +23.1° З,С-З 2 4 20 км - переменная облачность 749 761 -0.6 58% +14.5° более 2.5 км - - - -
06:00 +16.4° З 2 4 20 км - ясно 749 762 +0.2 90% +14.7° более 2.5 км - Влажная (без луж) - -
03:00 +16.8° З 1 3 20 км - ясно 749 762 0 91% +15.4° более 2.5 км - - - -
00:00 +18.9° З 1 3 20 км - ясно 749 762 +0.1 88% +16.9° более 2.5 км - - - -
Суббота, 11 Августа
Время местн. Темп Ветер Видим Явления Облачность нижн/средн/верх Атм. давл. Влжн Точка росы ВНГО R Сост. почвы Tg s
Напр Скр Прв ур.ст ур.м изм
21:00 +22.1° З,Ю-З 2 4 20 км - переменная облачность 749 761 +0.1 75% +17.4° 1 км - - - -
18:00 +27.1° З,С-З 3 5 20 км - переменная облачность 749 761 -0.8 52% +16.3° 1 км - - - -
15:00 +28.3° С-З 5 8 20 км - облачно с прояснениями 750 762 -0.5 45% +15.4° 600 м - - - -
12:00 +27° З,С-З 4 7 20 км - переменная облачность 750 762 -0.5 54% +16.9° более 2.5 км - - - -
09:00 +23.1° З,С-З 3 5 20 км - облачно с прояснениями 751 763 -0.2 68% +16.8° более 2.5 км - - - -